WetterOnline ( https://www.wetteronline.de )

Wetter aktuell Weiden

Aktuelles Wetter: Weiden (439m)

6-stündlich | Neueste Meldungen
Ortszeit Temperatur Wetter
Mo, 15.08. 8:00 17.5° C leicht bewölkt
Mo, 15.08. 2:00 18.2° C wolkenlos
So, 14.08. 20:00 25.4° C leicht bewölkt
So, 14.08. 14:00 26.2° C wolkig
So, 14.08. 8:00 17.3° C wolkenlos
So, 14.08. 2:00 17.2° C leicht bewölkt
Sa, 13.08. 20:00 22.9° C wolkenlos
Sa, 13.08. 14:00 26.0° C bedeckt
Ortszeit Temperatur Wetter
Mo, 15.08. 12:30 25.0° C bedeckt
Mo, 15.08. 12:20 25.0° C bedeckt
Mo, 15.08. 12:10 25.4° C bedeckt
Mo, 15.08. 12:00 24.2° C bedeckt
Mo, 15.08. 11:50 24.2° C bedeckt
Mo, 15.08. 11:40 24.3° C bedeckt
Mo, 15.08. 11:30 24.1° C wolkig
Mo, 15.08. 11:00 24.0° C wolkig
Mo, 15.08. 10:30 24.4° C wolkig
Mo, 15.08. 10:00 23.1° C wolkig
Mo, 15.08. 9:30 22.6° C wolkig
Ortszeit Relative Feuchte Sichtweite
Mo, 15.08. 8:00 71% 30 km
Mo, 15.08. 2:00 73% 40 km
So, 14.08. 20:00 44% 60 km
So, 14.08. 14:00 43% 50 km
So, 14.08. 8:00 78% 25 km
So, 14.08. 2:00 82% 30 km
Sa, 13.08. 20:00 52% 50 km
Sa, 13.08. 14:00 34% >70 km
Ortszeit Relative Feuchte Sichtweite
Mo, 15.08. 12:30 44% 55 km
Mo, 15.08. 12:20 44% -
Mo, 15.08. 12:10 42% -
Mo, 15.08. 12:00 43% 50 km
Mo, 15.08. 11:50 43% -
Mo, 15.08. 11:40 49% -
Mo, 15.08. 11:30 48% 55 km
Mo, 15.08. 11:00 47% 40 km
Mo, 15.08. 10:30 49% 55 km
Mo, 15.08. 10:00 53% 40 km
Mo, 15.08. 9:30 56% 40 km
Ortszeit Niederschlagsmenge Niederschlagsart
Mo, 15.08. 8:00 0.0 l/m2 in 12 Std. -
Mo, 15.08. 2:00 0.0 l/m2 in 6 Std. -
So, 14.08. 20:00 0.0 l/m2 in 12 Std. -
So, 14.08. 14:00 0.0 l/m2 in 6 Std. -
So, 14.08. 8:00 0.0 l/m2 in 12 Std. -
So, 14.08. 2:00 0.0 l/m2 in 6 Std. -
Sa, 13.08. 20:00 0.0 l/m2 in 12 Std. -
Sa, 13.08. 14:00 0.0 l/m2 in 6 Std. -
Ortszeit Niederschlagsmenge Niederschlagsart
Mo, 15.08. 12:30 0.0 l/m2 in 1 Std. -
Mo, 15.08. 12:20 keine Meldung -
Mo, 15.08. 12:10 keine Meldung -
Mo, 15.08. 12:00 0.0 l/m2 in 1 Std. -
Mo, 15.08. 11:50 keine Meldung -
Mo, 15.08. 11:40 keine Meldung -
Mo, 15.08. 11:30 0.0 l/m2 in 1 Std. -
Mo, 15.08. 11:00 0.0 l/m2 in 1 Std. -
Mo, 15.08. 10:30 0.0 l/m2 in 1 Std. -
Mo, 15.08. 10:00 0.0 l/m2 in 1 Std. -
Mo, 15.08. 9:30 0.0 l/m2 in 1 Std. -
Ortszeit Stärke Spitze Richtung
km/h Bft. km/h Grad Sektor
Mo, 15.08. 8:00 0 0 7 - -
Mo, 15.08. 2:00 2 1 19 40° NO
So, 14.08. 20:00 9 2 33 70° O
So, 14.08. 14:00 18 3 40 70° O
So, 14.08. 8:00 4 1 7 310° NW
So, 14.08. 2:00 2 1 17 330° NW
Sa, 13.08. 20:00 9 2 31 20° N
Sa, 13.08. 14:00 13 3 26 10° N
Ortszeit Stärke Spitze Richtung
km/h Bft. km/h Grad Sektor
Mo, 15.08. 12:30 9 2 20 230° SW
Mo, 15.08. 12:20 9 2 - 230° SW
Mo, 15.08. 12:10 7 2 - 220° SW
Mo, 15.08. 12:00 11 2 22 250° W
Mo, 15.08. 11:50 11 2 - 250° W
Mo, 15.08. 11:40 7 2 - 240° SW
Mo, 15.08. 11:30 11 2 22 240° SW
Mo, 15.08. 11:00 11 2 29 240° SW
Mo, 15.08. 10:30 11 2 28 230° SW
Mo, 15.08. 10:00 7 2 22 230° SW
Mo, 15.08. 9:30 7 2 22 190° S
Ortszeit Untergrenze Bedeckung Gattung
total tief tief mittel hoch
Mo, 15.08. 8:00 8400 m 3/8 0/8 - - -
Mo, 15.08. 2:00 - 0/8 0/8 - - -
So, 14.08. 20:00 1500 m 5/8 1/8 - - -
So, 14.08. 14:00 1470 m 5/8 5/8 - - -
So, 14.08. 8:00 - 0/8 0/8 - - -
So, 14.08. 2:00 9000 m 4/8 0/8 - - -
Sa, 13.08. 20:00 - 0/8 0/8 - - -
Sa, 13.08. 14:00 2100 m 8/8 8/8 - - -
Ortszeit Bedeckungsgrad in Achtel und Wolkenuntergrenze
Mo, 15.08. 12:30 1(4200m) 8(4800m) 8(6000m)
Mo, 15.08. 12:20 1(4200m) 8(4800m) 8(6000m)
Mo, 15.08. 12:10 8
Mo, 15.08. 12:00 3(3900m) 8(4800m) 8(6000m)
Mo, 15.08. 11:50 3(3900m) 8(4800m) 8(6000m)
Mo, 15.08. 11:40 8
Mo, 15.08. 11:30 1(2100m) 6(4800m) 8(5400m)
Mo, 15.08. 11:00 2(3300m) 5(5700m) 7(6900m)
Mo, 15.08. 10:30 1(6900m) 8(8100m)
Mo, 15.08. 10:00 3(6900m) 8(8400m)
Mo, 15.08. 9:30 1(6900m) 8(8400m) 8(9000m)
Ortszeit Luftdruck NN (hPa) Tendenz (hPa in 3 Std.)
Mo, 15.08. 8:00 1006 0,0
Mo, 15.08. 2:00 1006 - 0,8
So, 14.08. 20:00 1006 - 0,9
So, 14.08. 14:00 1009 - 1,3
So, 14.08. 8:00 1012 - 1,2
So, 14.08. 2:00 1014 - 0,7
Sa, 13.08. 20:00 1014 - 0,5
Sa, 13.08. 14:00 1015 - 1,3
Ortszeit Luftdruck NN (hPa) Tendenz (hPa in 3 Std.)
Mo, 15.08. 12:30 1005 - 0,1
Mo, 15.08. 12:20 1005 keine Meldung
Mo, 15.08. 12:10 1005 keine Meldung
Mo, 15.08. 12:00 1006 0,0
Mo, 15.08. 11:50 1006 keine Meldung
Mo, 15.08. 11:40 1005 keine Meldung
Mo, 15.08. 11:30 1006 + 0,3
Mo, 15.08. 11:00 1006 + 0,4
Mo, 15.08. 10:30 1005 + 0,1
Mo, 15.08. 10:00 1006 + 0,1
Mo, 15.08. 9:30 1006 + 0,3
Ortszeit Schneehöhe (cm)
Mo, 15.08. 8:00 0
Mo, 15.08. 2:00 0
So, 14.08. 20:00 0
So, 14.08. 14:00 0
So, 14.08. 8:00 0
So, 14.08. 2:00 0
Sa, 13.08. 20:00 0
Sa, 13.08. 14:00 0
Ortszeit Schneehöhe (cm)
Mo, 15.08. 12:30 0
Mo, 15.08. 12:20 0
Mo, 15.08. 12:10 0
Mo, 15.08. 12:00 0
Mo, 15.08. 11:50 0
Mo, 15.08. 11:40 0
Mo, 15.08. 11:30 0
Mo, 15.08. 11:00 0
Mo, 15.08. 10:30 0
Mo, 15.08. 10:00 0
Mo, 15.08. 9:30 0
Link zu dieser Seite / Seite empfehlen

Das Wetter in ...